createdAt,value
2018-09-13T00:02:00.669Z,73.77
2018-09-13T00:04:28.417Z,73.65
2018-09-13T00:06:57.329Z,73.63
2018-09-13T00:09:25.642Z,73.68
2018-09-13T00:11:53.963Z,73.60
2018-09-13T00:14:22.276Z,73.58
2018-09-13T00:16:50.020Z,73.51
2018-09-13T00:19:18.342Z,73.66
2018-09-13T00:21:46.673Z,73.81
2018-09-13T00:24:14.992Z,74.05
2018-09-13T00:26:43.905Z,73.98
2018-09-13T00:29:11.645Z,73.84
2018-09-13T00:31:40.548Z,74.22
2018-09-13T00:34:08.877Z,74.21
2018-09-13T00:36:37.194Z,73.99
2018-09-13T00:39:04.947Z,73.82
2018-09-13T00:41:33.268Z,73.85
2018-09-13T00:44:01.585Z,73.77
2018-09-13T00:46:30.495Z,73.69
2018-09-13T00:48:58.811Z,73.60
2018-09-13T00:51:27.140Z,73.68
2018-09-13T00:53:54.884Z,73.86
2018-09-13T00:56:23.208Z,73.99
2018-09-13T00:58:51.539Z,73.97
2018-09-13T01:01:20.433Z,74.03
2018-09-13T01:03:48.761Z,74.05
2018-09-13T01:06:17.085Z,74.08
2018-09-13T01:08:45.402Z,74.01
2018-09-13T01:11:13.733Z,73.85
2018-09-13T01:13:41.473Z,73.75
2018-09-13T01:16:09.934Z,73.90
2018-09-13T01:18:38.124Z,74.22
2018-09-13T01:21:06.444Z,74.35
2018-09-13T01:23:34.845Z,74.40
2018-09-13T01:26:03.665Z,74.41
2018-09-13T01:28:31.976Z,74.35
2018-09-13T01:30:59.721Z,74.35
2018-09-13T01:33:28.615Z,74.38
2018-09-13T01:35:56.940Z,74.32
2018-09-13T01:38:25.271Z,74.39
2018-09-13T01:40:53.594Z,74.53
2018-09-13T01:43:21.922Z,74.49
2018-09-13T01:45:50.249Z,74.71
2018-09-13T01:48:18.556Z,74.82
2018-09-13T01:50:46.882Z,74.87
2018-09-13T01:53:14.615Z,75.06
2018-09-13T01:55:42.933Z,75.20
2018-09-13T01:58:11.260Z,75.22
2018-09-13T02:00:40.150Z,75.30
2018-09-13T02:03:07.887Z,75.39
2018-09-13T02:05:36.781Z,75.47
2018-09-13T02:08:05.116Z,75.50
2018-09-13T02:10:32.844Z,75.72
2018-09-13T02:13:01.181Z,75.80
2018-09-13T02:15:30.082Z,76.29
2018-09-13T02:17:57.830Z,76.77
2018-09-13T02:20:26.405Z,77.30
2018-09-13T02:22:55.061Z,77.33
2018-09-13T02:25:23.384Z,77.11
2018-09-13T02:27:51.713Z,76.75
2018-09-13T02:30:19.462Z,76.72
2018-09-13T02:32:48.362Z,76.53
2018-09-13T02:35:16.679Z,76.63
2018-09-13T02:37:44.997Z,76.87
2018-09-13T02:40:13.311Z,77.21
2018-09-13T02:42:41.643Z,77.30
2018-09-13T02:45:09.962Z,77.37
2018-09-13T02:47:38.293Z,77.39
2018-09-13T02:50:06.614Z,77.44
2018-09-13T02:52:34.931Z,77.17
2018-09-13T02:55:03.256Z,76.88
2018-09-13T02:57:30.990Z,76.54
2018-09-13T02:59:59.883Z,76.50
2018-09-13T03:02:28.207Z,76.43
2018-09-13T03:04:56.534Z,76.42
2018-09-13T03:07:24.867Z,76.41
2018-09-13T03:09:52.597Z,76.33
2018-09-13T03:12:21.502Z,76.30
2018-09-13T03:14:49.441Z,76.29
2018-09-13T03:17:18.152Z,76.37
2018-09-13T03:19:46.479Z,76.44
2018-09-13T03:22:15.390Z,76.50
2018-09-13T03:24:43.130Z,76.68
2018-09-13T03:27:12.045Z,77.24
2018-09-13T03:29:39.767Z,77.20
2018-09-13T03:32:07.499Z,77.28
2018-09-13T03:34:36.397Z,77.14
2018-09-13T03:37:04.716Z,76.98
2018-09-13T03:39:33.027Z,76.89
2018-09-13T03:42:01.392Z,76.95
2018-09-13T03:44:29.088Z,76.90
2018-09-13T03:46:57.420Z,76.78
2018-09-13T03:49:25.862Z,76.67
2018-09-13T03:51:54.074Z,76.61
2018-09-13T03:54:22.971Z,76.40
2018-09-13T03:56:50.730Z,76.31
2018-09-13T03:59:19.049Z,76.23
2018-09-13T04:01:47.959Z,76.17
2018-09-13T04:04:16.272Z,76.22
2018-09-13T04:06:44.030Z,76.54
2018-09-13T04:09:12.988Z,77.57
2018-09-13T04:11:41.269Z,78.62
2018-09-13T04:14:09.595Z,79.09
2018-09-13T04:16:37.948Z,78.77
2018-09-13T04:19:05.684Z,78.45
2018-09-13T04:21:34.614Z,78.16
2018-09-13T04:24:02.333Z,78.07
2018-09-13T04:26:31.241Z,77.84
2018-09-13T04:28:59.551Z,77.80
2018-09-13T04:31:27.294Z,77.97
2018-09-13T04:33:55.618Z,78.35
2018-09-13T04:36:24.531Z,78.71
2018-09-13T04:38:52.849Z,78.76
2018-09-13T04:41:21.405Z,78.49
2018-09-13T04:43:49.231Z,78.69
2018-09-13T04:46:17.841Z,78.71
2018-09-13T04:48:46.196Z,78.71
2018-09-13T04:51:14.522Z,78.75
2018-09-13T04:53:42.323Z,78.51
2018-09-13T04:56:11.174Z,78.00
2018-09-13T04:58:39.494Z,77.59
2018-09-13T05:01:07.239Z,77.51
2018-09-13T05:03:36.139Z,77.24
2018-09-13T05:06:03.880Z,77.11
2018-09-13T05:08:32.203Z,77.13
2018-09-13T05:11:01.110Z,76.80
2018-09-13T05:13:28.853Z,76.46
2018-09-13T05:15:57.767Z,76.15
2018-09-13T05:18:26.085Z,76.07
2018-09-13T05:20:54.503Z,75.99
2018-09-13T05:23:22.839Z,76.02
2018-09-13T05:25:50.584Z,75.97
2018-09-13T05:28:19.487Z,76.16
2018-09-13T05:30:47.818Z,76.14
2018-09-13T05:33:15.562Z,76.53
2018-09-13T05:35:43.898Z,76.55
2018-09-13T05:38:12.796Z,76.24
2018-09-13T05:40:41.113Z,76.61
2018-09-13T05:43:08.861Z,76.76
2018-09-13T05:45:37.224Z,76.40
2018-09-13T05:48:05.513Z,76.55
2018-09-13T05:50:34.418Z,76.49
2018-09-13T05:53:02.748Z,76.35
2018-09-13T05:55:30.495Z,75.94
2018-09-13T05:57:58.855Z,75.48
2018-09-13T06:00:27.798Z,75.35
2018-09-13T06:02:56.127Z,75.65
2018-09-13T06:05:23.876Z,75.61
2018-09-13T06:07:52.484Z,75.81
2018-09-13T06:10:21.331Z,75.76
2018-09-13T06:12:49.448Z,75.85
2018-09-13T06:15:18.143Z,75.86
2018-09-13T06:17:46.353Z,75.66
2018-09-13T06:20:14.686Z,75.27
2018-09-13T06:22:43.019Z,74.81
2018-09-13T06:25:10.764Z,74.60
2018-09-13T06:27:39.686Z,74.27
2018-09-13T06:30:08.025Z,74.60
2018-09-13T06:32:36.367Z,74.49
2018-09-13T06:35:05.609Z,74.32
2018-09-13T06:37:33.420Z,73.41
2018-09-13T06:40:02.347Z,72.92
2018-09-13T06:42:30.749Z,73.27
2018-09-13T06:44:59.002Z,72.20
2018-09-13T06:47:29.471Z,73.09
2018-09-13T06:49:55.080Z,72.97
2018-09-13T06:52:24.040Z,73.27
2018-09-13T06:54:51.770Z,72.61
2018-09-13T06:57:20.736Z,72.08
2018-09-13T06:59:48.643Z,71.07
2018-09-13T07:02:18.045Z,72.06
2018-09-13T07:04:46.343Z,72.14
2018-09-13T07:07:14.078Z,71.87
2018-09-13T07:09:42.408Z,71.51
2018-09-13T07:12:11.311Z,71.62
2018-09-13T07:14:39.646Z,71.53
2018-09-13T07:17:07.384Z,71.58
2018-09-13T07:19:36.293Z,70.59
2018-09-13T07:22:04.632Z,70.81
2018-09-13T07:24:32.374Z,70.51
2018-09-13T07:27:01.292Z,70.39
2018-09-13T07:29:29.053Z,68.97
2018-09-13T07:31:57.961Z,69.54
2018-09-13T07:34:26.314Z,68.91
2018-09-13T07:36:54.122Z,68.94
2018-09-13T07:39:22.976Z,69.01
2018-09-13T07:41:50.721Z,69.19
2018-09-13T07:44:19.061Z,69.08
2018-09-13T07:46:47.967Z,68.81
2018-09-13T07:49:16.670Z,68.34
2018-09-13T07:51:44.926Z,68.13
2018-09-13T07:54:13.243Z,67.70
2018-09-13T07:56:41.584Z,68.28
2018-09-13T07:59:10.469Z,68.19
2018-09-13T08:01:40.937Z,67.91
2018-09-13T08:04:09.336Z,68.02
2018-09-13T08:06:35.975Z,68.05
2018-09-13T08:09:04.828Z,67.72
2018-09-13T08:11:33.188Z,67.33
2018-09-13T08:14:00.930Z,66.94
2018-09-13T08:16:30.044Z,65.65
2018-09-13T08:18:59.348Z,65.52
2018-09-13T08:21:28.024Z,65.33
2018-09-13T08:23:55.784Z,65.43
2018-09-13T08:26:24.996Z,64.83
2018-09-13T08:28:53.346Z,64.50
2018-09-13T08:31:21.711Z,64.27
2018-09-13T08:33:50.031Z,63.71
2018-09-13T08:36:19.384Z,63.43
2018-09-13T08:38:47.746Z,62.99
2018-09-13T08:41:16.349Z,62.81
2018-09-13T08:43:44.656Z,63.21
2018-09-13T08:46:12.406Z,62.87
2018-09-13T08:48:44.713Z,63.44
2018-09-13T08:51:09.666Z,61.77
2018-09-13T08:53:37.405Z,62.78
2018-09-13T08:56:05.737Z,62.38
2018-09-13T08:58:34.647Z,61.74
2018-09-13T09:01:03.203Z,61.00
2018-09-13T09:03:33.811Z,60.80
2018-09-13T09:06:02.177Z,60.59
2018-09-13T09:08:32.135Z,60.47
2018-09-13T09:11:01.888Z,60.19
2018-09-13T09:16:24.760Z,59.97
2018-09-13T09:18:53.073Z,59.45
2018-09-13T09:21:21.492Z,59.16
2018-09-13T09:23:50.296Z,58.71
2018-09-13T09:26:18.796Z,58.91
2018-09-13T09:28:47.143Z,58.69
2018-09-13T09:31:15.672Z,58.46
2018-09-13T09:33:53.596Z,58.46
2018-09-13T09:36:21.897Z,58.19
2018-09-13T09:38:49.695Z,58.00
2018-09-13T09:41:18.747Z,58.10
2018-09-13T09:43:51.601Z,57.79
2018-09-13T09:46:16.029Z,57.32
2018-09-13T09:48:44.659Z,56.89
2018-09-13T09:51:13.229Z,56.88
2018-09-13T09:53:41.550Z,56.90
2018-09-13T09:56:09.889Z,57.00
2018-09-13T09:58:37.621Z,56.86
2018-09-13T10:01:06.526Z,57.55
2018-09-13T10:03:36.991Z,57.44
2018-09-13T10:06:03.219Z,56.96
2018-09-13T10:08:31.784Z,56.04
2018-09-13T10:11:00.196Z,55.30
2018-09-13T10:13:28.870Z,55.14
2018-09-13T10:15:57.751Z,54.78
2018-09-13T10:18:29.830Z,54.72
2018-09-13T10:20:59.799Z,54.75
2018-09-13T10:23:33.937Z,54.56
2018-09-13T10:26:02.225Z,54.68
2018-09-13T10:28:32.348Z,54.58
2018-09-13T10:31:01.709Z,54.55
2018-09-13T10:33:36.077Z,53.22
2018-09-13T10:36:04.965Z,51.29
2018-09-13T10:38:40.165Z,51.85
2018-09-13T10:41:09.002Z,52.00
2018-09-13T10:43:38.606Z,52.36
2018-09-13T10:46:12.806Z,53.17
2018-09-13T10:48:41.711Z,53.61
2018-09-13T10:51:10.042Z,53.18
2018-09-13T10:53:38.706Z,53.55
2018-09-13T10:56:07.404Z,49.89
2018-09-13T10:58:35.733Z,49.08
2018-09-13T11:01:04.059Z,50.39
2018-09-13T11:03:32.915Z,50.83
2018-09-13T11:06:01.221Z,51.01
2018-09-13T11:08:30.124Z,51.56
2018-09-13T11:10:58.542Z,51.73
2018-09-13T11:13:26.801Z,51.85
2018-09-13T11:15:55.457Z,51.65
2018-09-13T11:18:23.211Z,52.09
2018-09-13T11:20:52.119Z,51.86
2018-09-13T11:23:19.861Z,52.02
2018-09-13T11:25:49.087Z,51.83
2018-09-13T11:28:17.429Z,51.88
2018-09-13T11:30:45.766Z,51.88
2018-09-13T11:33:14.087Z,52.32
2018-09-13T11:35:42.452Z,51.74
2018-09-13T11:38:10.778Z,51.54
2018-09-13T11:40:38.681Z,51.27
2018-09-13T11:43:08.674Z,50.14
2018-09-13T11:45:37.524Z,51.08
2018-09-13T11:48:05.887Z,50.74
2018-09-13T11:50:34.998Z,49.83
2018-09-13T11:53:03.335Z,47.30
2018-09-13T11:55:31.090Z,48.04
2018-09-13T11:58:00.975Z,48.76
2018-09-13T12:00:29.310Z,48.10
2018-09-13T12:02:57.632Z,47.60
2018-09-13T12:05:25.389Z,45.63
2018-09-13T12:07:54.312Z,44.55
2018-09-13T12:10:22.645Z,45.18
2018-09-13T12:12:50.950Z,43.49
2018-09-13T12:15:19.524Z,43.64
2018-09-13T12:17:48.245Z,44.51
2018-09-13T12:20:15.973Z,41.99
2018-09-13T12:22:44.365Z,42.28
2018-09-13T12:25:12.098Z,39.67
2018-09-13T12:27:41.007Z,39.96
2018-09-13T12:30:09.340Z,40.90
2018-09-13T12:32:37.722Z,41.29
2018-09-13T12:35:06.036Z,40.56
2018-09-13T12:37:34.409Z,40.06
2018-09-13T12:40:02.742Z,39.86
2018-09-13T12:42:31.078Z,37.55
2018-09-13T12:44:58.832Z,38.66
2018-09-13T12:47:27.176Z,38.38
2018-09-13T12:49:55.600Z,35.40
2018-09-13T12:52:23.974Z,36.77
2018-09-13T12:54:53.062Z,36.87
2018-09-13T12:57:21.878Z,33.70
2018-09-13T12:59:49.979Z,36.74
2018-09-13T13:02:18.284Z,36.43
2018-09-13T13:04:46.630Z,36.97
2018-09-13T13:07:14.954Z,35.45
2018-09-13T13:09:42.710Z,35.86
2018-09-13T13:12:11.633Z,33.64
2018-09-13T13:17:39.520Z,34.24
2018-09-13T13:20:07.250Z,33.36
2018-09-13T13:22:36.154Z,33.08
2018-09-13T13:59:31.055Z,37.56
2018-09-13T14:02:01.056Z,37.58
2018-09-13T14:04:29.373Z,37.68
2018-09-13T14:06:57.713Z,37.99
2018-09-13T14:09:26.046Z,38.43
2018-09-13T14:11:54.851Z,38.60
2018-09-13T14:14:23.175Z,39.46
2018-09-13T14:16:51.532Z,39.31
2018-09-13T14:19:19.935Z,38.72
2018-09-13T14:21:48.221Z,36.99
2018-09-13T14:24:16.062Z,35.85
2018-09-13T14:26:45.004Z,34.89
2018-09-13T14:29:13.313Z,34.38
2018-09-13T14:31:41.692Z,34.04
2018-09-13T14:34:09.454Z,32.56
2018-09-13T14:36:38.602Z,32.32
2018-09-13T14:39:06.116Z,32.47
2018-09-13T14:41:35.024Z,32.38
2018-09-13T14:44:03.127Z,32.09
2018-09-13T14:46:32.055Z,31.85
2018-09-13T14:49:01.127Z,31.98
2018-09-13T14:51:30.502Z,31.19
2018-09-13T14:53:59.509Z,30.99
2018-09-13T14:56:28.408Z,31.75
2018-09-13T14:58:58.470Z,33.10
2018-09-13T15:01:27.168Z,34.72
2018-09-13T15:03:55.496Z,35.87
2018-09-13T15:06:23.819Z,36.10
2018-09-13T15:08:52.146Z,35.72
2018-09-13T15:11:20.728Z,34.41
2018-09-13T15:13:48.827Z,33.40
2018-09-13T15:16:17.152Z,32.82
2018-09-13T15:18:45.714Z,31.68
2018-09-13T15:21:15.461Z,31.36
2018-09-13T15:23:44.636Z,29.42
2018-09-13T15:26:12.976Z,29.88
2018-09-13T15:28:41.336Z,29.92
2018-09-13T15:31:09.972Z,30.77
2018-09-13T15:33:38.040Z,32.20
2018-09-13T15:36:07.365Z,35.29
2018-09-13T15:38:34.390Z,37.02
2018-09-13T15:41:03.282Z,38.35
2018-09-13T15:43:37.770Z,39.09
2018-09-13T15:46:06.128Z,39.92
2018-09-13T15:48:36.691Z,40.65
2018-09-13T15:51:05.011Z,41.60
2018-09-13T15:53:33.837Z,42.09
2018-09-13T15:56:01.590Z,42.58
2018-09-13T15:58:31.617Z,42.67
2018-09-13T16:00:59.948Z,42.93
2018-09-13T16:03:28.691Z,43.30
2018-09-13T16:05:57.094Z,43.67
2018-09-13T16:08:25.756Z,44.25
2018-09-13T16:10:54.098Z,44.60
2018-09-13T16:13:22.457Z,44.96
2018-09-13T16:15:50.788Z,45.09
2018-09-13T16:18:19.121Z,45.38
2018-09-13T16:20:47.529Z,45.80
2018-09-13T16:23:16.247Z,46.26
2018-09-13T16:25:44.616Z,46.43
2018-09-13T16:28:12.998Z,46.68
2018-09-13T16:30:41.327Z,46.65
2018-09-13T16:33:09.087Z,46.98
2018-09-13T16:35:37.982Z,47.05
2018-09-13T16:38:06.369Z,47.39
2018-09-13T16:40:34.719Z,47.60
2018-09-13T16:43:08.067Z,47.98
2018-09-13T16:45:36.448Z,48.38
2018-09-13T16:48:05.342Z,48.72
2018-09-13T16:50:33.889Z,49.09
2018-09-13T16:53:02.016Z,49.14
2018-09-13T16:55:30.341Z,49.52
2018-09-13T16:57:58.828Z,49.80
2018-09-13T17:00:27.595Z,49.96
2018-09-13T17:02:56.111Z,50.09
2018-09-13T17:05:24.459Z,50.28
2018-09-13T17:07:53.180Z,50.26
2018-09-13T17:10:21.589Z,50.68
2018-09-13T17:12:49.936Z,51.22
2018-09-13T17:15:18.350Z,51.14
2018-09-13T17:17:46.688Z,51.25
2018-09-13T17:20:15.130Z,51.06
2018-09-13T17:22:43.566Z,50.79
2018-09-13T17:25:12.136Z,50.88
2018-09-13T17:27:40.589Z,51.13
2018-09-13T17:30:09.064Z,51.20
2018-09-13T17:32:37.696Z,50.96
2018-09-13T17:35:06.206Z,50.58
2018-09-13T17:37:34.629Z,50.61
2018-09-13T17:40:03.221Z,50.71
2018-09-13T17:42:31.602Z,51.23
2018-09-13T17:45:00.280Z,51.77
2018-09-13T17:47:28.676Z,52.11
2018-09-13T17:49:57.116Z,52.89
2018-09-13T17:52:25.847Z,54.12
2018-09-13T17:54:54.234Z,55.59
2018-09-13T17:57:22.565Z,55.93
2018-09-13T17:59:51.008Z,56.32
2018-09-13T18:02:19.380Z,56.73
2018-09-13T18:04:47.724Z,57.22
2018-09-13T18:07:16.467Z,57.36
2018-09-13T18:09:44.817Z,57.88
2018-09-13T18:12:13.299Z,57.90
2018-09-13T18:14:41.703Z,58.30
2018-09-13T18:17:10.131Z,58.61
2018-09-13T18:19:38.476Z,58.86
2018-09-13T18:22:06.863Z,59.67
2018-09-13T18:24:35.243Z,60.54
2018-09-13T18:27:04.028Z,60.94
2018-09-13T18:29:32.462Z,61.37
2018-09-13T18:32:00.838Z,61.67
2018-09-13T18:34:29.680Z,61.86
2018-09-13T18:36:57.449Z,61.71
2018-09-13T18:39:26.364Z,61.71
2018-09-13T18:41:54.703Z,61.21
2018-09-13T18:44:22.552Z,61.07
2018-09-13T18:46:50.882Z,60.96
2018-09-13T18:49:19.210Z,61.65
2018-09-13T18:51:47.555Z,62.29
2018-09-13T18:54:16.499Z,62.83
2018-09-13T18:56:44.821Z,62.76
2018-09-13T18:59:13.179Z,63.14
2018-09-13T19:01:42.903Z,63.22
2018-09-13T19:04:11.236Z,63.42
2018-09-13T19:06:39.589Z,63.54
2018-09-13T19:09:07.938Z,63.71
2018-09-13T19:11:36.337Z,63.96
2018-09-13T19:14:04.646Z,64.11
2018-09-13T19:16:34.011Z,64.25
2018-09-13T19:19:01.427Z,64.38
2018-09-13T19:21:29.796Z,64.55
2018-09-13T19:23:58.290Z,65.01
2018-09-13T19:26:26.663Z,65.19
2018-09-13T19:28:57.228Z,65.49
2018-09-13T19:31:26.909Z,65.74
2018-09-13T19:33:59.142Z,66.13
2018-09-13T19:36:29.497Z,66.56
2018-09-13T19:39:03.531Z,66.92
2018-09-13T19:41:35.083Z,67.19
2018-09-13T19:44:05.127Z,67.67
2018-09-13T19:46:36.356Z,67.70
2018-09-13T19:52:07.630Z,68.06
2018-09-13T19:54:45.366Z,68.36
2018-09-13T19:57:15.581Z,68.02
2018-09-13T19:59:47.383Z,68.36
2018-09-13T20:02:16.787Z,68.64
2018-09-13T20:07:33.149Z,68.46
2018-09-13T20:10:02.822Z,68.61
2018-09-13T20:12:31.208Z,68.49
2018-09-13T20:15:03.792Z,69.16
2018-09-13T20:17:32.276Z,69.59
2018-09-13T20:20:01.166Z,69.89
2018-09-13T20:22:30.210Z,70.70
2018-09-13T20:25:03.646Z,70.77
2018-09-13T20:27:33.620Z,70.54
2018-09-13T20:30:02.189Z,70.56
2018-09-13T20:32:30.362Z,70.66
2018-09-13T20:34:58.688Z,70.64
2018-09-13T20:37:26.478Z,70.63
2018-09-13T20:39:55.410Z,70.62
2018-09-13T20:42:23.744Z,71.06
2018-09-13T20:44:51.508Z,71.27
2018-09-13T20:47:19.838Z,71.04
2018-09-13T20:49:48.749Z,71.47
2018-09-13T20:52:17.072Z,71.84
2018-09-13T20:54:45.489Z,71.77
2018-09-13T20:57:13.245Z,71.94
2018-09-13T20:59:43.141Z,71.62
2018-09-13T21:02:10.882Z,70.86
2018-09-13T21:04:39.796Z,69.96
2018-09-13T21:07:08.165Z,69.33
2018-09-13T21:09:36.528Z,69.57
2018-09-13T21:12:04.907Z,69.86
2018-09-13T21:14:33.225Z,71.24
2018-09-13T21:17:01.623Z,71.99
2018-09-13T21:19:29.928Z,72.65
2018-09-13T21:21:58.285Z,72.83
2018-09-13T21:24:26.654Z,72.73
2018-09-13T21:26:54.936Z,73.01
2018-09-13T21:29:23.321Z,72.80
2018-09-13T21:31:51.772Z,72.39
2018-09-13T21:34:20.097Z,72.69
2018-09-13T21:36:47.849Z,72.39
2018-09-13T21:39:16.199Z,72.58
2018-09-13T21:41:44.521Z,72.98
2018-09-13T21:44:13.446Z,73.50
2018-09-13T21:46:41.783Z,73.70
2018-09-13T21:49:10.105Z,73.68
2018-09-13T21:51:38.439Z,73.64
2018-09-13T21:54:06.178Z,73.46
2018-09-13T21:56:34.510Z,73.22
2018-09-13T21:59:02.829Z,72.94
2018-09-13T22:01:31.735Z,72.65
2018-09-13T22:03:59.472Z,72.57
2018-09-13T22:06:28.381Z,72.56
2018-09-13T22:08:56.700Z,72.89
2018-09-13T22:11:25.093Z,73.11
2018-09-13T22:13:53.352Z,73.27
2018-09-13T22:16:21.682Z,73.47
2018-09-13T22:18:50.039Z,73.48
2018-09-13T22:21:18.415Z,73.02
2018-09-13T22:23:46.115Z,72.32
2018-09-13T22:26:15.015Z,71.74
2018-09-13T22:28:43.344Z,71.49
2018-09-13T22:31:11.218Z,71.25
2018-09-13T22:33:40.006Z,71.06
2018-09-13T22:36:08.328Z,71.86
2018-09-13T22:38:36.658Z,72.93
2018-09-13T22:41:04.393Z,73.45
2018-09-13T22:43:33.290Z,73.57
2018-09-13T22:46:01.626Z,73.71
2018-09-13T22:48:29.936Z,73.91
2018-09-13T22:50:57.684Z,74.40
2018-09-13T22:53:26.084Z,74.80
2018-09-13T22:55:54.919Z,74.67
2018-09-13T22:58:22.659Z,74.89
2018-09-13T23:00:50.980Z,75.46
2018-09-13T23:03:19.876Z,74.94
2018-09-13T23:05:47.626Z,74.97
2018-09-13T23:08:15.941Z,75.12
2018-09-13T23:10:44.849Z,75.50
2018-09-13T23:13:13.168Z,75.59
2018-09-13T23:15:41.484Z,75.38
2018-09-13T23:18:09.805Z,74.92
2018-09-13T23:20:37.554Z,74.03
2018-09-13T23:23:05.873Z,73.42
2018-09-13T23:25:34.783Z,72.93
2018-09-13T23:28:03.116Z,72.87
2018-09-13T23:30:31.438Z,73.56
2018-09-13T23:32:59.770Z,74.53
2018-09-13T23:35:28.085Z,75.33
2018-09-13T23:37:56.412Z,76.46
2018-09-13T23:40:24.292Z,76.33
2018-09-13T23:42:53.314Z,76.08
2018-09-13T23:45:20.863Z,75.28
2018-09-13T23:47:49.173Z,74.44
2018-09-13T23:50:17.490Z,74.07
2018-09-13T23:52:45.818Z,73.66
2018-09-13T23:55:14.725Z,74.29
2018-09-13T23:57:43.059Z,74.83
